Search for airport 
image banner adimage banner adimage banner ad
image banner ad

2CA2 - Cones Field

Located in Twentynine Palms, United States

ICAO - 2CA2, IATA -

Data provided by Airmate  

General information

Coordinates: N34°9'46" W116°2'53"
Elevation is 1800 feet MSL.
Magnetic variation is 14° East
View others Airports in California

Operational data

Special qualification required
Current time UTC:
Current local time:
Weather at : KNXP - Twentynine Palms Self ( 18 km )
METAR: KNXP 221356Z AUTO 31005KT 10SM CLR 27/M03 A2998 RMK AO2 SLP109 T02671028
TAF: TAF KNXP 2209/2309 VRB06KT 9999 SKC 520009 520903 QNH2993INS BECMG 2218/2220 24012KT 9999 SCT150 621609 500000 QNH2989INS TEMPO 2221/2303 25017G22KT FM230530 VRB06KT 9999 SCT150 600000 QNH2992INS T26/2213Z T38/2222Z
View NOTAMs / SUP AIP / TFR affecting this airport [VIEW]
Communications frequencies: [VIEW]

Runways:

RWY identifierQFULength (ft)Width (ft)SurfaceLDA (ft)
051400100EARTH
231400100EARTH
121050450EARTH
301050450EARTH
171300100EARTH
351300100EARTH

Airport contact information

Address: Twentynine Palms United States

Satellite view of 2CA2